sensor_id;sensor_type;location;lat;lon;timestamp;P1;durP1;ratioP1;P2;durP2;ratioP2
17741;SDS011;8993;51.822;-2.268;2023-05-14T00:03:46;22.15;;;15.63;;
17741;SDS011;8993;51.822;-2.268;2023-05-14T00:08:50;19.25;;;13.61;;
17741;SDS011;8993;51.822;-2.268;2023-05-14T00:13:54;20.07;;;14.06;;
17741;SDS011;8993;51.822;-2.268;2023-05-14T00:18:58;19.63;;;13.41;;
17741;SDS011;8993;51.822;-2.268;2023-05-14T00:24:02;25.67;;;16.70;;
17741;SDS011;8993;51.822;-2.268;2023-05-14T00:29:06;24.41;;;16.41;;
17741;SDS011;8993;51.822;-2.268;2023-05-14T00:34:10;31.01;;;20.51;;
17741;SDS011;8993;51.822;-2.268;2023-05-14T00:39:14;28.82;;;19.32;;
17741;SDS011;8993;51.822;-2.268;2023-05-14T00:44:18;27.76;;;18.76;;
17741;SDS011;8993;51.822;-2.268;2023-05-14T00:49:22;23.78;;;16.74;;
17741;SDS011;8993;51.822;-2.268;2023-05-14T00:54:26;25.28;;;17.05;;
17741;SDS011;8993;51.822;-2.268;2023-05-14T00:59:31;34.61;;;23.03;;
17741;SDS011;8993;51.822;-2.268;2023-05-14T01:04:35;27.47;;;18.69;;
17741;SDS011;8993;51.822;-2.268;2023-05-14T01:09:41;29.13;;;19.04;;
17741;SDS011;8993;51.822;-2.268;2023-05-14T01:14:46;25.02;;;17.36;;
17741;SDS011;8993;51.822;-2.268;2023-05-14T01:19:47;27.58;;;17.91;;
17741;SDS011;8993;51.822;-2.268;2023-05-14T01:24:51;31.88;;;20.55;;
17741;SDS011;8993;51.822;-2.268;2023-05-14T01:29:57;27.35;;;18.29;;
17741;SDS011;8993;51.822;-2.268;2023-05-14T01:34:59;25.04;;;17.37;;
17741;SDS011;8993;51.822;-2.268;2023-05-14T01:40:04;26.62;;;17.60;;
17741;SDS011;8993;51.822;-2.268;2023-05-14T01:45:08;27.97;;;19.49;;
17741;SDS011;8993;51.822;-2.268;2023-05-14T01:50:14;34.92;;;23.44;;
17741;SDS011;8993;51.822;-2.268;2023-05-14T01:55:18;25.86;;;18.10;;
17741;SDS011;8993;51.822;-2.268;2023-05-14T02:00:23;24.66;;;16.81;;
17741;SDS011;8993;51.822;-2.268;2023-05-14T02:05:29;22.52;;;15.40;;
17741;SDS011;8993;51.822;-2.268;2023-05-14T02:10:33;22.48;;;15.26;;
17741;SDS011;8993;51.822;-2.268;2023-05-14T02:15:37;38.99;;;24.06;;
17741;SDS011;8993;51.822;-2.268;2023-05-14T02:20:41;25.31;;;17.42;;
17741;SDS011;8993;51.822;-2.268;2023-05-14T02:25:47;32.44;;;21.31;;
17741;SDS011;8993;51.822;-2.268;2023-05-14T02:30:51;26.42;;;17.56;;
17741;SDS011;8993;51.822;-2.268;2023-05-14T02:35:55;26.34;;;17.06;;
17741;SDS011;8993;51.822;-2.268;2023-05-14T02:41:00;27.41;;;17.91;;
17741;SDS011;8993;51.822;-2.268;2023-05-14T02:46:03;21.45;;;15.17;;
17741;SDS011;8993;51.822;-2.268;2023-05-14T02:51:07;21.49;;;14.84;;
17741;SDS011;8993;51.822;-2.268;2023-05-14T02:56:11;25.05;;;16.85;;
17741;SDS011;8993;51.822;-2.268;2023-05-14T03:01:15;21.77;;;15.14;;
17741;SDS011;8993;51.822;-2.268;2023-05-14T03:06:19;20.56;;;14.91;;
17741;SDS011;8993;51.822;-2.268;2023-05-14T03:11:24;19.12;;;13.43;;
17741;SDS011;8993;51.822;-2.268;2023-05-14T03:16:28;18.87;;;13.56;;
17741;SDS011;8993;51.822;-2.268;2023-05-14T03:21:32;22.90;;;15.92;;
17741;SDS011;8993;51.822;-2.268;2023-05-14T03:26:36;29.34;;;19.51;;
17741;SDS011;8993;51.822;-2.268;2023-05-14T03:31:40;23.60;;;16.50;;
17741;SDS011;8993;51.822;-2.268;2023-05-14T03:36:44;14.07;;;11.30;;
17741;SDS011;8993;51.822;-2.268;2023-05-14T03:41:48;14.58;;;11.45;;
17741;SDS011;8993;51.822;-2.268;2023-05-14T03:46:52;17.68;;;13.18;;
17741;SDS011;8993;51.822;-2.268;2023-05-14T03:51:57;18.65;;;12.77;;
17741;SDS011;8993;51.822;-2.268;2023-05-14T03:57:03;15.96;;;12.19;;
17741;SDS011;8993;51.822;-2.268;2023-05-14T04:02:08;18.73;;;12.72;;
17741;SDS011;8993;51.822;-2.268;2023-05-14T04:07:12;34.53;;;21.91;;
17741;SDS011;8993;51.822;-2.268;2023-05-14T04:12:16;32.04;;;20.33;;
17741;SDS011;8993;51.822;-2.268;2023-05-14T04:17:23;28.96;;;19.81;;
17741;SDS011;8993;51.822;-2.268;2023-05-14T04:22:27;27.30;;;18.97;;
17741;SDS011;8993;51.822;-2.268;2023-05-14T04:27:31;25.01;;;17.66;;
17741;SDS011;8993;51.822;-2.268;2023-05-14T04:32:35;27.34;;;19.82;;
17741;SDS011;8993;51.822;-2.268;2023-05-14T04:37:39;27.51;;;18.78;;
17741;SDS011;8993;51.822;-2.268;2023-05-14T04:42:43;27.65;;;19.74;;
17741;SDS011;8993;51.822;-2.268;2023-05-14T04:47:47;30.06;;;21.47;;
17741;SDS011;8993;51.822;-2.268;2023-05-14T04:52:51;30.88;;;22.42;;
17741;SDS011;8993;51.822;-2.268;2023-05-14T04:57:55;24.26;;;18.69;;
17741;SDS011;8993;51.822;-2.268;2023-05-14T05:02:59;25.16;;;19.51;;
17741;SDS011;8993;51.822;-2.268;2023-05-14T05:08:04;24.52;;;18.43;;
17741;SDS011;8993;51.822;-2.268;2023-05-14T05:13:08;31.82;;;23.35;;
17741;SDS011;8993;51.822;-2.268;2023-05-14T05:18:12;23.11;;;17.54;;
17741;SDS011;8993;51.822;-2.268;2023-05-14T05:23:16;28.11;;;20.66;;
17741;SDS011;8993;51.822;-2.268;2023-05-14T05:28:22;36.08;;;24.77;;
17741;SDS011;8993;51.822;-2.268;2023-05-14T05:33:26;39.18;;;25.72;;
17741;SDS011;8993;51.822;-2.268;2023-05-14T05:38:30;32.63;;;22.89;;
17741;SDS011;8993;51.822;-2.268;2023-05-14T05:43:35;26.19;;;19.85;;
17741;SDS011;8993;51.822;-2.268;2023-05-14T05:48:39;30.23;;;21.69;;
17741;SDS011;8993;51.822;-2.268;2023-05-14T05:53:43;33.88;;;23.98;;
17741;SDS011;8993;51.822;-2.268;2023-05-14T05:58:47;40.20;;;27.33;;
17741;SDS011;8993;51.822;-2.268;2023-05-14T06:03:51;41.84;;;27.54;;
17741;SDS011;8993;51.822;-2.268;2023-05-14T06:08:55;46.52;;;29.38;;
17741;SDS011;8993;51.822;-2.268;2023-05-14T06:14:00;51.48;;;32.88;;
17741;SDS011;8993;51.822;-2.268;2023-05-14T06:19:04;45.61;;;30.58;;
17741;SDS011;8993;51.822;-2.268;2023-05-14T06:24:09;53.86;;;35.15;;
17741;SDS011;8993;51.822;-2.268;2023-05-14T06:29:12;45.71;;;31.60;;
17741;SDS011;8993;51.822;-2.268;2023-05-14T06:44:23;40.42;;;28.70;;
17741;SDS011;8993;51.822;-2.268;2023-05-14T06:49:27;40.22;;;28.95;;
17741;SDS011;8993;51.822;-2.268;2023-05-14T06:54:31;44.89;;;30.95;;
17741;SDS011;8993;51.822;-2.268;2023-05-14T06:59:36;44.68;;;29.99;;
17741;SDS011;8993;51.822;-2.268;2023-05-14T07:04:40;46.44;;;32.03;;
17741;SDS011;8993;51.822;-2.268;2023-05-14T07:09:44;39.02;;;27.87;;
17741;SDS011;8993;51.822;-2.268;2023-05-14T07:14:49;40.64;;;29.23;;
17741;SDS011;8993;51.822;-2.268;2023-05-14T07:19:53;39.80;;;28.41;;
17741;SDS011;8993;51.822;-2.268;2023-05-14T07:24:57;46.02;;;31.68;;
17741;SDS011;8993;51.822;-2.268;2023-05-14T07:30:01;51.49;;;34.46;;
17741;SDS011;8993;51.822;-2.268;2023-05-14T07:35:06;49.20;;;33.31;;
17741;SDS011;8993;51.822;-2.268;2023-05-14T07:40:10;49.56;;;32.79;;
17741;SDS011;8993;51.822;-2.268;2023-05-14T07:45:14;47.43;;;30.70;;
17741;SDS011;8993;51.822;-2.268;2023-05-14T07:50:19;43.97;;;30.79;;
17741;SDS011;8993;51.822;-2.268;2023-05-14T07:55:23;45.04;;;30.67;;
17741;SDS011;8993;51.822;-2.268;2023-05-14T08:00:28;41.94;;;28.64;;
17741;SDS011;8993;51.822;-2.268;2023-05-14T08:05:33;43.70;;;30.26;;
17741;SDS011;8993;51.822;-2.268;2023-05-14T08:10:36;37.79;;;27.21;;
17741;SDS011;8993;51.822;-2.268;2023-05-14T08:15:41;39.52;;;27.34;;
17741;SDS011;8993;51.822;-2.268;2023-05-14T08:20:45;40.06;;;28.29;;
17741;SDS011;8993;51.822;-2.268;2023-05-14T08:25:49;38.55;;;27.62;;
17741;SDS011;8993;51.822;-2.268;2023-05-14T08:30:54;39.05;;;27.79;;
17741;SDS011;8993;51.822;-2.268;2023-05-14T08:35:59;42.93;;;30.14;;
17741;SDS011;8993;51.822;-2.268;2023-05-14T08:41:04;44.46;;;30.51;;
17741;SDS011;8993;51.822;-2.268;2023-05-14T08:46:08;46.32;;;32.65;;
17741;SDS011;8993;51.822;-2.268;2023-05-14T08:51:13;48.98;;;33.78;;
17741;SDS011;8993;51.822;-2.268;2023-05-14T08:56:18;54.96;;;36.67;;
17741;SDS011;8993;51.822;-2.268;2023-05-14T09:01:25;47.62;;;34.35;;
17741;SDS011;8993;51.822;-2.268;2023-05-14T09:06:31;49.94;;;34.14;;
17741;SDS011;8993;51.822;-2.268;2023-05-14T09:11:39;50.35;;;35.52;;
17741;SDS011;8993;51.822;-2.268;2023-05-14T09:16:40;51.78;;;36.36;;
17741;SDS011;8993;51.822;-2.268;2023-05-14T09:21:47;52.23;;;36.72;;
17741;SDS011;8993;51.822;-2.268;2023-05-14T09:26:56;50.74;;;36.78;;
17741;SDS011;8993;51.822;-2.268;2023-05-14T09:32:04;51.86;;;35.95;;
17741;SDS011;8993;51.822;-2.268;2023-05-14T09:37:09;54.21;;;37.91;;
17741;SDS011;8993;51.822;-2.268;2023-05-14T09:42:13;54.10;;;38.06;;
17741;SDS011;8993;51.822;-2.268;2023-05-14T09:47:18;51.22;;;36.86;;
17741;SDS011;8993;51.822;-2.268;2023-05-14T09:52:22;52.64;;;37.01;;
17741;SDS011;8993;51.822;-2.268;2023-05-14T09:57:27;47.29;;;34.33;;
17741;SDS011;8993;51.822;-2.268;2023-05-14T10:02:34;45.90;;;33.61;;
17741;SDS011;8993;51.822;-2.268;2023-05-14T10:07:39;44.79;;;32.87;;
17741;SDS011;8993;51.822;-2.268;2023-05-14T10:12:44;51.29;;;36.00;;
17741;SDS011;8993;51.822;-2.268;2023-05-14T10:17:48;53.81;;;36.68;;
17741;SDS011;8993;51.822;-2.268;2023-05-14T10:22:52;61.57;;;42.53;;
17741;SDS011;8993;51.822;-2.268;2023-05-14T10:27:58;60.44;;;41.76;;
17741;SDS011;8993;51.822;-2.268;2023-05-14T10:33:06;65.03;;;44.71;;
17741;SDS011;8993;51.822;-2.268;2023-05-14T10:38:07;67.33;;;43.95;;
17741;SDS011;8993;51.822;-2.268;2023-05-14T10:43:11;59.83;;;41.05;;
17741;SDS011;8993;51.822;-2.268;2023-05-14T10:48:16;61.50;;;42.25;;
17741;SDS011;8993;51.822;-2.268;2023-05-14T10:53:25;61.74;;;41.67;;
17741;SDS011;8993;51.822;-2.268;2023-05-14T10:58:24;58.85;;;39.49;;
17741;SDS011;8993;51.822;-2.268;2023-05-14T11:03:28;58.81;;;38.56;;
17741;SDS011;8993;51.822;-2.268;2023-05-14T11:08:32;56.24;;;37.39;;
17741;SDS011;8993;51.822;-2.268;2023-05-14T11:13:37;53.43;;;36.92;;
17741;SDS011;8993;51.822;-2.268;2023-05-14T11:18:43;50.95;;;35.23;;
17741;SDS011;8993;51.822;-2.268;2023-05-14T11:23:48;49.80;;;35.36;;
17741;SDS011;8993;51.822;-2.268;2023-05-14T11:28:52;47.84;;;33.82;;
17741;SDS011;8993;51.822;-2.268;2023-05-14T11:33:56;43.66;;;31.60;;
17741;SDS011;8993;51.822;-2.268;2023-05-14T11:39:00;42.14;;;30.31;;
17741;SDS011;8993;51.822;-2.268;2023-05-14T11:44:04;35.28;;;26.35;;
17741;SDS011;8993;51.822;-2.268;2023-05-14T11:49:09;34.68;;;26.11;;
17741;SDS011;8993;51.822;-2.268;2023-05-14T11:54:13;35.43;;;26.87;;
17741;SDS011;8993;51.822;-2.268;2023-05-14T11:59:17;33.99;;;26.24;;
17741;SDS011;8993;51.822;-2.268;2023-05-14T12:04:22;33.74;;;25.86;;
17741;SDS011;8993;51.822;-2.268;2023-05-14T12:09:26;32.44;;;25.15;;
17741;SDS011;8993;51.822;-2.268;2023-05-14T12:14:31;36.45;;;27.77;;
17741;SDS011;8993;51.822;-2.268;2023-05-14T12:19:36;34.36;;;25.39;;
17741;SDS011;8993;51.822;-2.268;2023-05-14T12:24:40;32.05;;;25.92;;
17741;SDS011;8993;51.822;-2.268;2023-05-14T12:29:45;31.21;;;24.60;;
17741;SDS011;8993;51.822;-2.268;2023-05-14T12:34:49;32.03;;;24.35;;
17741;SDS011;8993;51.822;-2.268;2023-05-14T12:39:53;29.14;;;22.24;;
17741;SDS011;8993;51.822;-2.268;2023-05-14T12:44:57;25.85;;;20.50;;
17741;SDS011;8993;51.822;-2.268;2023-05-14T12:50:02;25.24;;;18.23;;
17741;SDS011;8993;51.822;-2.268;2023-05-14T12:55:06;23.51;;;19.04;;
17741;SDS011;8993;51.822;-2.268;2023-05-14T13:00:11;23.35;;;18.47;;
17741;SDS011;8993;51.822;-2.268;2023-05-14T13:05:15;23.50;;;17.12;;
17741;SDS011;8993;51.822;-2.268;2023-05-14T13:10:20;23.55;;;17.85;;
17741;SDS011;8993;51.822;-2.268;2023-05-14T13:15:24;22.14;;;16.83;;
17741;SDS011;8993;51.822;-2.268;2023-05-14T13:20:32;20.23;;;15.64;;
17741;SDS011;8993;51.822;-2.268;2023-05-14T13:25:36;22.37;;;17.19;;
17741;SDS011;8993;51.822;-2.268;2023-05-14T13:30:41;23.15;;;17.69;;
17741;SDS011;8993;51.822;-2.268;2023-05-14T13:35:46;21.92;;;16.70;;
17741;SDS011;8993;51.822;-2.268;2023-05-14T13:40:51;22.73;;;16.72;;
17741;SDS011;8993;51.822;-2.268;2023-05-14T13:45:55;20.50;;;15.53;;
17741;SDS011;8993;51.822;-2.268;2023-05-14T13:51:00;19.93;;;14.24;;
17741;SDS011;8993;51.822;-2.268;2023-05-14T13:56:05;20.53;;;14.40;;
17741;SDS011;8993;51.822;-2.268;2023-05-14T14:01:09;18.67;;;13.63;;
17741;SDS011;8993;51.822;-2.268;2023-05-14T14:06:14;19.43;;;13.74;;
17741;SDS011;8993;51.822;-2.268;2023-05-14T14:11:19;20.77;;;12.97;;
17741;SDS011;8993;51.822;-2.268;2023-05-14T14:16:23;19.31;;;13.20;;
17741;SDS011;8993;51.822;-2.268;2023-05-14T14:21:27;21.04;;;14.08;;
17741;SDS011;8993;51.822;-2.268;2023-05-14T14:26:31;23.12;;;15.11;;
17741;SDS011;8993;51.822;-2.268;2023-05-14T14:31:38;22.24;;;14.61;;
17741;SDS011;8993;51.822;-2.268;2023-05-14T14:36:42;22.40;;;15.00;;
17741;SDS011;8993;51.822;-2.268;2023-05-14T14:41:47;22.18;;;15.13;;
17741;SDS011;8993;51.822;-2.268;2023-05-14T14:46:51;20.21;;;14.04;;
17741;SDS011;8993;51.822;-2.268;2023-05-14T14:51:56;18.03;;;12.52;;
17741;SDS011;8993;51.822;-2.268;2023-05-14T14:57:02;17.17;;;12.26;;
17741;SDS011;8993;51.822;-2.268;2023-05-14T15:02:06;20.17;;;13.65;;
17741;SDS011;8993;51.822;-2.268;2023-05-14T15:07:12;24.85;;;16.03;;
17741;SDS011;8993;51.822;-2.268;2023-05-14T15:12:16;21.36;;;15.47;;
17741;SDS011;8993;51.822;-2.268;2023-05-14T15:17:22;19.37;;;12.58;;
17741;SDS011;8993;51.822;-2.268;2023-05-14T15:22:26;13.87;;;8.91;;
17741;SDS011;8993;51.822;-2.268;2023-05-14T15:27:30;9.35;;;6.23;;
17741;SDS011;8993;51.822;-2.268;2023-05-14T15:32:35;6.81;;;5.71;;
17741;SDS011;8993;51.822;-2.268;2023-05-14T15:37:39;7.86;;;5.74;;
17741;SDS011;8993;51.822;-2.268;2023-05-14T15:42:43;10.05;;;6.96;;
17741;SDS011;8993;51.822;-2.268;2023-05-14T15:47:50;11.40;;;7.98;;
17741;SDS011;8993;51.822;-2.268;2023-05-14T15:52:54;11.26;;;7.92;;
17741;SDS011;8993;51.822;-2.268;2023-05-14T15:57:59;10.98;;;7.37;;
17741;SDS011;8993;51.822;-2.268;2023-05-14T16:03:04;10.07;;;7.20;;
17741;SDS011;8993;51.822;-2.268;2023-05-14T16:08:08;8.71;;;6.35;;
17741;SDS011;8993;51.822;-2.268;2023-05-14T16:13:12;8.77;;;6.07;;
17741;SDS011;8993;51.822;-2.268;2023-05-14T16:18:17;8.90;;;6.54;;
17741;SDS011;8993;51.822;-2.268;2023-05-14T16:23:22;9.95;;;6.34;;
17741;SDS011;8993;51.822;-2.268;2023-05-14T16:28:26;9.98;;;6.85;;
17741;SDS011;8993;51.822;-2.268;2023-05-14T16:33:31;9.69;;;6.84;;
17741;SDS011;8993;51.822;-2.268;2023-05-14T16:38:35;10.85;;;7.27;;
17741;SDS011;8993;51.822;-2.268;2023-05-14T16:43:40;9.98;;;7.42;;
17741;SDS011;8993;51.822;-2.268;2023-05-14T16:48:44;12.15;;;7.99;;
17741;SDS011;8993;51.822;-2.268;2023-05-14T16:53:48;10.85;;;7.05;;
17741;SDS011;8993;51.822;-2.268;2023-05-14T16:58:53;11.60;;;7.31;;
17741;SDS011;8993;51.822;-2.268;2023-05-14T17:03:57;9.02;;;6.34;;
17741;SDS011;8993;51.822;-2.268;2023-05-14T17:09:01;10.81;;;6.76;;
17741;SDS011;8993;51.822;-2.268;2023-05-14T17:14:06;8.85;;;5.32;;
17741;SDS011;8993;51.822;-2.268;2023-05-14T17:19:10;8.55;;;5.26;;
17741;SDS011;8993;51.822;-2.268;2023-05-14T17:24:17;5.80;;;3.25;;
17741;SDS011;8993;51.822;-2.268;2023-05-14T17:29:22;4.70;;;2.39;;
17741;SDS011;8993;51.822;-2.268;2023-05-14T17:34:35;5.90;;;2.84;;
17741;SDS011;8993;51.822;-2.268;2023-05-14T17:39:33;2.89;;;1.75;;
17741;SDS011;8993;51.822;-2.268;2023-05-14T17:44:38;2.34;;;1.28;;
17741;SDS011;8993;51.822;-2.268;2023-05-14T17:49:43;2.33;;;1.35;;
17741;SDS011;8993;51.822;-2.268;2023-05-14T17:54:47;2.54;;;1.37;;
17741;SDS011;8993;51.822;-2.268;2023-05-14T17:59:52;1.64;;;0.96;;
17741;SDS011;8993;51.822;-2.268;2023-05-14T18:04:58;1.28;;;0.86;;
17741;SDS011;8993;51.822;-2.268;2023-05-14T18:10:03;1.46;;;0.85;;
17741;SDS011;8993;51.822;-2.268;2023-05-14T18:15:08;1.60;;;0.97;;
17741;SDS011;8993;51.822;-2.268;2023-05-14T18:20:12;1.91;;;0.98;;
17741;SDS011;8993;51.822;-2.268;2023-05-14T18:25:21;3.00;;;1.57;;
17741;SDS011;8993;51.822;-2.268;2023-05-14T18:30:27;1.68;;;0.99;;
17741;SDS011;8993;51.822;-2.268;2023-05-14T18:35:31;1.64;;;0.86;;
17741;SDS011;8993;51.822;-2.268;2023-05-14T18:40:38;2.26;;;0.84;;
17741;SDS011;8993;51.822;-2.268;2023-05-14T18:45:43;1.53;;;0.80;;
17741;SDS011;8993;51.822;-2.268;2023-05-14T18:50:50;1.94;;;0.91;;
17741;SDS011;8993;51.822;-2.268;2023-05-14T18:55:54;1.76;;;0.91;;
17741;SDS011;8993;51.822;-2.268;2023-05-14T19:00:59;7.06;;;3.51;;
17741;SDS011;8993;51.822;-2.268;2023-05-14T19:06:04;2.40;;;0.95;;
17741;SDS011;8993;51.822;-2.268;2023-05-14T19:11:08;2.81;;;0.96;;
17741;SDS011;8993;51.822;-2.268;2023-05-14T19:16:13;1.92;;;0.93;;
17741;SDS011;8993;51.822;-2.268;2023-05-14T19:21:18;2.28;;;1.03;;
17741;SDS011;8993;51.822;-2.268;2023-05-14T19:26:22;2.02;;;1.14;;
17741;SDS011;8993;51.822;-2.268;2023-05-14T19:31:28;2.03;;;1.02;;
17741;SDS011;8993;51.822;-2.268;2023-05-14T19:36:32;2.37;;;1.30;;
17741;SDS011;8993;51.822;-2.268;2023-05-14T19:41:37;2.52;;;1.02;;
17741;SDS011;8993;51.822;-2.268;2023-05-14T19:46:42;2.10;;;0.91;;
17741;SDS011;8993;51.822;-2.268;2023-05-14T19:51:46;3.48;;;1.06;;
17741;SDS011;8993;51.822;-2.268;2023-05-14T19:56:51;1.93;;;1.03;;
17741;SDS011;8993;51.822;-2.268;2023-05-14T20:01:55;2.83;;;0.93;;
17741;SDS011;8993;51.822;-2.268;2023-05-14T20:07:00;1.95;;;0.85;;
17741;SDS011;8993;51.822;-2.268;2023-05-14T20:12:04;2.26;;;1.03;;
17741;SDS011;8993;51.822;-2.268;2023-05-14T20:17:09;2.32;;;1.14;;
17741;SDS011;8993;51.822;-2.268;2023-05-14T20:22:14;2.72;;;1.42;;
17741;SDS011;8993;51.822;-2.268;2023-05-14T20:27:19;3.85;;;1.73;;
17741;SDS011;8993;51.822;-2.268;2023-05-14T20:32:23;2.98;;;1.35;;
17741;SDS011;8993;51.822;-2.268;2023-05-14T20:37:27;2.96;;;1.30;;
17741;SDS011;8993;51.822;-2.268;2023-05-14T20:42:34;3.07;;;1.19;;
17741;SDS011;8993;51.822;-2.268;2023-05-14T20:47:38;2.37;;;1.28;;
17741;SDS011;8993;51.822;-2.268;2023-05-14T20:52:43;1.97;;;1.13;;
17741;SDS011;8993;51.822;-2.268;2023-05-14T20:57:47;3.34;;;1.88;;
17741;SDS011;8993;51.822;-2.268;2023-05-14T21:02:51;2.05;;;1.51;;
17741;SDS011;8993;51.822;-2.268;2023-05-14T21:07:55;2.59;;;1.75;;
17741;SDS011;8993;51.822;-2.268;2023-05-14T21:12:59;2.31;;;1.36;;
17741;SDS011;8993;51.822;-2.268;2023-05-14T21:18:03;2.52;;;1.64;;
17741;SDS011;8993;51.822;-2.268;2023-05-14T21:23:08;2.51;;;1.76;;
17741;SDS011;8993;51.822;-2.268;2023-05-14T21:28:11;4.72;;;2.35;;
17741;SDS011;8993;51.822;-2.268;2023-05-14T21:33:16;3.42;;;2.21;;
17741;SDS011;8993;51.822;-2.268;2023-05-14T21:38:19;3.36;;;2.00;;
17741;SDS011;8993;51.822;-2.268;2023-05-14T21:43:23;2.82;;;1.51;;
17741;SDS011;8993;51.822;-2.268;2023-05-14T21:48:28;3.59;;;1.66;;
17741;SDS011;8993;51.822;-2.268;2023-05-14T21:53:32;3.54;;;1.61;;
17741;SDS011;8993;51.822;-2.268;2023-05-14T21:58:36;3.75;;;2.19;;
17741;SDS011;8993;51.822;-2.268;2023-05-14T22:03:40;2.55;;;1.74;;
17741;SDS011;8993;51.822;-2.268;2023-05-14T22:08:44;3.90;;;2.60;;
17741;SDS011;8993;51.822;-2.268;2023-05-14T22:13:48;4.56;;;2.63;;
17741;SDS011;8993;51.822;-2.268;2023-05-14T22:18:52;3.78;;;2.06;;
17741;SDS011;8993;51.822;-2.268;2023-05-14T22:23:56;3.87;;;2.45;;
17741;SDS011;8993;51.822;-2.268;2023-05-14T22:29:00;3.44;;;2.05;;
17741;SDS011;8993;51.822;-2.268;2023-05-14T22:34:04;3.06;;;2.34;;
17741;SDS011;8993;51.822;-2.268;2023-05-14T22:39:08;4.65;;;2.82;;
17741;SDS011;8993;51.822;-2.268;2023-05-14T22:44:14;4.10;;;2.63;;
17741;SDS011;8993;51.822;-2.268;2023-05-14T22:49:18;4.07;;;2.39;;
17741;SDS011;8993;51.822;-2.268;2023-05-14T22:54:22;3.71;;;2.61;;
17741;SDS011;8993;51.822;-2.268;2023-05-14T22:59:26;3.63;;;2.33;;
17741;SDS011;8993;51.822;-2.268;2023-05-14T23:04:30;2.63;;;2.28;;
17741;SDS011;8993;51.822;-2.268;2023-05-14T23:09:34;4.51;;;2.76;;
17741;SDS011;8993;51.822;-2.268;2023-05-14T23:14:40;2.95;;;2.38;;
17741;SDS011;8993;51.822;-2.268;2023-05-14T23:19:44;3.10;;;1.67;;
17741;SDS011;8993;51.822;-2.268;2023-05-14T23:24:49;2.95;;;1.04;;
17741;SDS011;8993;51.822;-2.268;2023-05-14T23:29:52;2.49;;;0.79;;
17741;SDS011;8993;51.822;-2.268;2023-05-14T23:34:56;4.72;;;1.01;;
17741;SDS011;8993;51.822;-2.268;2023-05-14T23:40:01;2.88;;;1.07;;
17741;SDS011;8993;51.822;-2.268;2023-05-14T23:45:06;3.44;;;1.20;;
17741;SDS011;8993;51.822;-2.268;2023-05-14T23:50:09;4.31;;;1.23;;
17741;SDS011;8993;51.822;-2.268;2023-05-14T23:55:13;4.53;;;1.31;;
